Delden, Netherlands
Current Conditions -  °F | °C
As of 1:55 AM on Tuesday 25 Nov 2014 (Local Time) from EHDL Reporting Station
Few Clouds Few Clouds  
Wind Chill: 32°   Ceiling: Unl
Heat Index: 32°   Visibility: 6mi
Dew Point: 32°   Wind: 2mph
Humidity: 100%   Direction: 90°E
Pressure: 30.33"   Gusts: NA
Location:  52.26°N, 6.71°E
Report Text: EHDL 250055Z AUTO 09002KT 9999 FEW110 M00/M00 Q1027 BLU
Loading
Personal Weather Stations






























Interactive Weather Map New forecast layout! Learn more

10-Day Weather Forecast

Advertisements
Track Severe Weather on mobile